sensor_id;sensor_type;location;lat;lon;timestamp;P1;durP1;ratioP1;P2;durP2;ratioP2
9898;SDS011;4988;49.238;6.698;2022-11-20T00:01:44;22.63;;;10.87;;
9898;SDS011;4988;49.238;6.698;2022-11-20T00:04:10;33.30;;;11.63;;
9898;SDS011;4988;49.238;6.698;2022-11-20T00:06:36;25.70;;;10.77;;
9898;SDS011;4988;49.238;6.698;2022-11-20T00:09:02;22.87;;;12.17;;
9898;SDS011;4988;49.238;6.698;2022-11-20T00:11:29;21.40;;;10.90;;
9898;SDS011;4988;49.238;6.698;2022-11-20T00:13:56;26.67;;;11.70;;
9898;SDS011;4988;49.238;6.698;2022-11-20T00:16:25;25.13;;;11.00;;
9898;SDS011;4988;49.238;6.698;2022-11-20T00:18:51;26.53;;;10.90;;
9898;SDS011;4988;49.238;6.698;2022-11-20T00:21:19;25.80;;;11.13;;
9898;SDS011;4988;49.238;6.698;2022-11-20T00:23:46;23.20;;;11.00;;
9898;SDS011;4988;49.238;6.698;2022-11-20T00:26:12;21.17;;;10.77;;
9898;SDS011;4988;49.238;6.698;2022-11-20T00:28:39;20.87;;;10.07;;
9898;SDS011;4988;49.238;6.698;2022-11-20T00:31:10;18.50;;;9.80;;
9898;SDS011;4988;49.238;6.698;2022-11-20T00:33:37;23.63;;;10.43;;
9898;SDS011;4988;49.238;6.698;2022-11-20T00:36:03;20.10;;;9.93;;
9898;SDS011;4988;49.238;6.698;2022-11-20T00:38:31;20.33;;;9.67;;
9898;SDS011;4988;49.238;6.698;2022-11-20T00:40:57;20.83;;;9.27;;
9898;SDS011;4988;49.238;6.698;2022-11-20T00:43:24;18.23;;;8.60;;
9898;SDS011;4988;49.238;6.698;2022-11-20T00:45:49;14.70;;;8.00;;
9898;SDS011;4988;49.238;6.698;2022-11-20T00:48:15;19.00;;;9.20;;
9898;SDS011;4988;49.238;6.698;2022-11-20T00:50:41;14.80;;;8.00;;
9898;SDS011;4988;49.238;6.698;2022-11-20T00:53:06;14.90;;;7.63;;
9898;SDS011;4988;49.238;6.698;2022-11-20T00:55:32;17.63;;;7.93;;
9898;SDS011;4988;49.238;6.698;2022-11-20T00:57:57;19.57;;;8.97;;
9898;SDS011;4988;49.238;6.698;2022-11-20T01:00:22;18.23;;;8.30;;
9898;SDS011;4988;49.238;6.698;2022-11-20T01:02:48;19.40;;;7.53;;
9898;SDS011;4988;49.238;6.698;2022-11-20T01:05:13;14.50;;;7.77;;
9898;SDS011;4988;49.238;6.698;2022-11-20T01:07:38;15.73;;;7.60;;
9898;SDS011;4988;49.238;6.698;2022-11-20T01:10:04;16.60;;;8.80;;
9898;SDS011;4988;49.238;6.698;2022-11-20T01:12:29;16.87;;;7.90;;
9898;SDS011;4988;49.238;6.698;2022-11-20T01:14:55;18.30;;;8.53;;
9898;SDS011;4988;49.238;6.698;2022-11-20T01:17:20;17.70;;;7.70;;
9898;SDS011;4988;49.238;6.698;2022-11-20T01:19:48;16.37;;;8.07;;
9898;SDS011;4988;49.238;6.698;2022-11-20T01:22:14;16.17;;;8.27;;
9898;SDS011;4988;49.238;6.698;2022-11-20T01:24:39;16.53;;;7.67;;
9898;SDS011;4988;49.238;6.698;2022-11-20T01:27:04;16.03;;;7.57;;
9898;SDS011;4988;49.238;6.698;2022-11-20T01:29:30;12.20;;;7.43;;
9898;SDS011;4988;49.238;6.698;2022-11-20T01:31:55;15.00;;;7.60;;
9898;SDS011;4988;49.238;6.698;2022-11-20T01:34:21;15.10;;;7.83;;
9898;SDS011;4988;49.238;6.698;2022-11-20T01:36:47;18.47;;;7.80;;
9898;SDS011;4988;49.238;6.698;2022-11-20T01:39:20;14.37;;;7.70;;
9898;SDS011;4988;49.238;6.698;2022-11-20T01:41:47;12.57;;;7.13;;
9898;SDS011;4988;49.238;6.698;2022-11-20T01:47:43;15.30;;;7.93;;
9898;SDS011;4988;49.238;6.698;2022-11-20T01:52:44;11.67;;;7.00;;
9898;SDS011;4988;49.238;6.698;2022-11-20T01:55:15;12.93;;;6.87;;
9898;SDS011;4988;49.238;6.698;2022-11-20T01:57:44;12.77;;;7.13;;
9898;SDS011;4988;49.238;6.698;2022-11-20T02:00:13;15.90;;;7.33;;
9898;SDS011;4988;49.238;6.698;2022-11-20T02:02:42;15.60;;;7.77;;
9898;SDS011;4988;49.238;6.698;2022-11-20T02:05:16;13.20;;;7.00;;
9898;SDS011;4988;49.238;6.698;2022-11-20T02:07:47;12.03;;;6.93;;
9898;SDS011;4988;49.238;6.698;2022-11-20T02:10:13;16.20;;;7.70;;
9898;SDS011;4988;49.238;6.698;2022-11-20T02:12:39;11.37;;;6.87;;
9898;SDS011;4988;49.238;6.698;2022-11-20T02:15:23;13.43;;;6.40;;
9898;SDS011;4988;49.238;6.698;2022-11-20T02:17:48;15.50;;;7.30;;
9898;SDS011;4988;49.238;6.698;2022-11-20T02:20:13;13.43;;;6.37;;
9898;SDS011;4988;49.238;6.698;2022-11-20T02:22:42;11.00;;;5.90;;
9898;SDS011;4988;49.238;6.698;2022-11-20T02:25:15;12.33;;;6.73;;
9898;SDS011;4988;49.238;6.698;2022-11-20T02:27:42;11.10;;;6.60;;
9898;SDS011;4988;49.238;6.698;2022-11-20T02:30:08;11.20;;;5.73;;
9898;SDS011;4988;49.238;6.698;2022-11-20T02:32:36;11.23;;;5.90;;
9898;SDS011;4988;49.238;6.698;2022-11-20T02:37:54;10.23;;;6.17;;
9898;SDS011;4988;49.238;6.698;2022-11-20T02:40:21;12.20;;;6.50;;
9898;SDS011;4988;49.238;6.698;2022-11-20T02:42:46;12.43;;;6.13;;
9898;SDS011;4988;49.238;6.698;2022-11-20T02:45:12;11.60;;;5.83;;
9898;SDS011;4988;49.238;6.698;2022-11-20T02:47:37;9.60;;;5.20;;
9898;SDS011;4988;49.238;6.698;2022-11-20T02:50:03;11.23;;;5.60;;
9898;SDS011;4988;49.238;6.698;2022-11-20T02:52:29;8.90;;;5.23;;
9898;SDS011;4988;49.238;6.698;2022-11-20T02:54:55;11.33;;;6.00;;
9898;SDS011;4988;49.238;6.698;2022-11-20T02:57:20;12.53;;;6.00;;
9898;SDS011;4988;49.238;6.698;2022-11-20T02:59:45;8.87;;;5.33;;
9898;SDS011;4988;49.238;6.698;2022-11-20T03:02:11;9.77;;;5.40;;
9898;SDS011;4988;49.238;6.698;2022-11-20T03:04:36;9.17;;;5.77;;
9898;SDS011;4988;49.238;6.698;2022-11-20T03:07:01;9.50;;;6.00;;
9898;SDS011;4988;49.238;6.698;2022-11-20T03:09:27;9.43;;;5.93;;
9898;SDS011;4988;49.238;6.698;2022-11-20T03:11:54;11.37;;;5.77;;
9898;SDS011;4988;49.238;6.698;2022-11-20T03:14:19;8.47;;;5.60;;
9898;SDS011;4988;49.238;6.698;2022-11-20T03:16:44;13.10;;;5.90;;
9898;SDS011;4988;49.238;6.698;2022-11-20T03:19:10;10.30;;;5.27;;
9898;SDS011;4988;49.238;6.698;2022-11-20T03:21:36;9.93;;;5.50;;
9898;SDS011;4988;49.238;6.698;2022-11-20T03:24:02;13.00;;;6.13;;
9898;SDS011;4988;49.238;6.698;2022-11-20T03:26:27;8.87;;;5.70;;
9898;SDS011;4988;49.238;6.698;2022-11-20T03:28:54;10.87;;;6.20;;
9898;SDS011;4988;49.238;6.698;2022-11-20T03:31:25;12.97;;;5.47;;
9898;SDS011;4988;49.238;6.698;2022-11-20T03:33:55;12.53;;;5.53;;
9898;SDS011;4988;49.238;6.698;2022-11-20T03:36:21;8.60;;;5.60;;
9898;SDS011;4988;49.238;6.698;2022-11-20T03:38:47;9.80;;;5.30;;
9898;SDS011;4988;49.238;6.698;2022-11-20T03:41:14;8.80;;;5.37;;
9898;SDS011;4988;49.238;6.698;2022-11-20T03:43:49;10.90;;;5.33;;
9898;SDS011;4988;49.238;6.698;2022-11-20T03:46:18;10.37;;;5.93;;
9898;SDS011;4988;49.238;6.698;2022-11-20T03:48:43;9.77;;;5.90;;
9898;SDS011;4988;49.238;6.698;2022-11-20T03:51:13;10.67;;;5.97;;
9898;SDS011;4988;49.238;6.698;2022-11-20T03:53:43;10.33;;;5.73;;
9898;SDS011;4988;49.238;6.698;2022-11-20T03:56:11;12.87;;;6.30;;
9898;SDS011;4988;49.238;6.698;2022-11-20T03:58:37;10.60;;;5.80;;
9898;SDS011;4988;49.238;6.698;2022-11-20T04:01:11;9.27;;;5.43;;
9898;SDS011;4988;49.238;6.698;2022-11-20T04:03:38;11.80;;;6.07;;
9898;SDS011;4988;49.238;6.698;2022-11-20T04:06:15;11.20;;;5.87;;
9898;SDS011;4988;49.238;6.698;2022-11-20T04:09:06;11.93;;;6.37;;
9898;SDS011;4988;49.238;6.698;2022-11-20T04:11:32;9.10;;;5.37;;
9898;SDS011;4988;49.238;6.698;2022-11-20T04:14:00;12.40;;;6.63;;
9898;SDS011;4988;49.238;6.698;2022-11-20T04:16:30;13.23;;;6.23;;
9898;SDS011;4988;49.238;6.698;2022-11-20T04:18:58;11.83;;;6.10;;
9898;SDS011;4988;49.238;6.698;2022-11-20T04:21:25;11.00;;;5.83;;
9898;SDS011;4988;49.238;6.698;2022-11-20T04:23:51;11.93;;;6.20;;
9898;SDS011;4988;49.238;6.698;2022-11-20T04:26:21;11.97;;;6.97;;
9898;SDS011;4988;49.238;6.698;2022-11-20T04:28:48;13.37;;;6.73;;
9898;SDS011;4988;49.238;6.698;2022-11-20T04:31:14;12.03;;;7.10;;
9898;SDS011;4988;49.238;6.698;2022-11-20T04:33:41;12.30;;;7.20;;
9898;SDS011;4988;49.238;6.698;2022-11-20T04:36:11;11.43;;;7.00;;
9898;SDS011;4988;49.238;6.698;2022-11-20T04:38:38;11.83;;;6.70;;
9898;SDS011;4988;49.238;6.698;2022-11-20T04:41:05;11.57;;;6.20;;
9898;SDS011;4988;49.238;6.698;2022-11-20T04:43:32;14.10;;;7.07;;
9898;SDS011;4988;49.238;6.698;2022-11-20T04:45:58;11.70;;;7.13;;
9898;SDS011;4988;49.238;6.698;2022-11-20T04:48:25;13.73;;;7.43;;
9898;SDS011;4988;49.238;6.698;2022-11-20T04:50:51;15.33;;;7.37;;
9898;SDS011;4988;49.238;6.698;2022-11-20T04:53:17;13.37;;;7.77;;
9898;SDS011;4988;49.238;6.698;2022-11-20T04:55:43;13.27;;;7.60;;
9898;SDS011;4988;49.238;6.698;2022-11-20T04:58:08;14.37;;;7.70;;
9898;SDS011;4988;49.238;6.698;2022-11-20T05:00:34;13.50;;;7.83;;
9898;SDS011;4988;49.238;6.698;2022-11-20T05:02:59;16.13;;;7.80;;
9898;SDS011;4988;49.238;6.698;2022-11-20T05:05:25;18.30;;;8.80;;
9898;SDS011;4988;49.238;6.698;2022-11-20T05:07:50;16.40;;;8.30;;
9898;SDS011;4988;49.238;6.698;2022-11-20T05:10:15;14.87;;;8.10;;
9898;SDS011;4988;49.238;6.698;2022-11-20T05:12:41;15.20;;;7.90;;
9898;SDS011;4988;49.238;6.698;2022-11-20T05:15:06;13.07;;;7.70;;
9898;SDS011;4988;49.238;6.698;2022-11-20T05:17:32;14.73;;;8.00;;
9898;SDS011;4988;49.238;6.698;2022-11-20T05:19:57;15.03;;;8.60;;
9898;SDS011;4988;49.238;6.698;2022-11-20T05:22:22;17.37;;;8.60;;
9898;SDS011;4988;49.238;6.698;2022-11-20T05:24:48;20.33;;;8.60;;
9898;SDS011;4988;49.238;6.698;2022-11-20T05:27:13;16.23;;;8.10;;
9898;SDS011;4988;49.238;6.698;2022-11-20T05:29:39;14.83;;;8.23;;
9898;SDS011;4988;49.238;6.698;2022-11-20T05:32:04;15.93;;;8.63;;
9898;SDS011;4988;49.238;6.698;2022-11-20T05:34:32;18.10;;;8.13;;
9898;SDS011;4988;49.238;6.698;2022-11-20T05:36:57;18.67;;;9.37;;
9898;SDS011;4988;49.238;6.698;2022-11-20T05:39:23;24.77;;;9.00;;
9898;SDS011;4988;49.238;6.698;2022-11-20T05:41:48;17.13;;;8.83;;
9898;SDS011;4988;49.238;6.698;2022-11-20T05:44:33;15.43;;;8.00;;
9898;SDS011;4988;49.238;6.698;2022-11-20T05:46:58;17.10;;;8.47;;
9898;SDS011;4988;49.238;6.698;2022-11-20T05:49:24;13.23;;;7.77;;
9898;SDS011;4988;49.238;6.698;2022-11-20T05:51:49;17.90;;;8.47;;
9898;SDS011;4988;49.238;6.698;2022-11-20T05:54:14;18.03;;;8.90;;
9898;SDS011;4988;49.238;6.698;2022-11-20T05:56:40;17.70;;;8.53;;
9898;SDS011;4988;49.238;6.698;2022-11-20T05:59:05;15.87;;;8.27;;
9898;SDS011;4988;49.238;6.698;2022-11-20T06:01:30;17.20;;;8.60;;
9898;SDS011;4988;49.238;6.698;2022-11-20T06:03:56;14.10;;;7.83;;
9898;SDS011;4988;49.238;6.698;2022-11-20T06:06:21;16.47;;;8.63;;
9898;SDS011;4988;49.238;6.698;2022-11-20T06:08:47;14.33;;;8.33;;
9898;SDS011;4988;49.238;6.698;2022-11-20T06:11:13;15.37;;;8.90;;
9898;SDS011;4988;49.238;6.698;2022-11-20T06:13:40;17.00;;;8.97;;
9898;SDS011;4988;49.238;6.698;2022-11-20T06:16:06;18.50;;;9.20;;
9898;SDS011;4988;49.238;6.698;2022-11-20T06:18:31;15.97;;;8.07;;
9898;SDS011;4988;49.238;6.698;2022-11-20T06:21:04;15.70;;;8.30;;
9898;SDS011;4988;49.238;6.698;2022-11-20T06:23:35;15.50;;;7.93;;
9898;SDS011;4988;49.238;6.698;2022-11-20T06:26:05;11.80;;;7.37;;
9898;SDS011;4988;49.238;6.698;2022-11-20T06:28:32;16.43;;;9.00;;
9898;SDS011;4988;49.238;6.698;2022-11-20T06:30:58;15.33;;;8.13;;
9898;SDS011;4988;49.238;6.698;2022-11-20T06:33:24;15.73;;;8.10;;
9898;SDS011;4988;49.238;6.698;2022-11-20T06:35:49;16.67;;;9.13;;
9898;SDS011;4988;49.238;6.698;2022-11-20T06:38:15;15.27;;;8.77;;
9898;SDS011;4988;49.238;6.698;2022-11-20T06:40:40;17.03;;;8.27;;
9898;SDS011;4988;49.238;6.698;2022-11-20T06:43:06;16.57;;;8.70;;
9898;SDS011;4988;49.238;6.698;2022-11-20T06:45:31;17.40;;;8.93;;
9898;SDS011;4988;49.238;6.698;2022-11-20T06:47:57;17.87;;;8.87;;
9898;SDS011;4988;49.238;6.698;2022-11-20T06:50:23;18.07;;;8.27;;
9898;SDS011;4988;49.238;6.698;2022-11-20T06:52:49;18.33;;;8.57;;
9898;SDS011;4988;49.238;6.698;2022-11-20T06:55:14;14.30;;;8.10;;
9898;SDS011;4988;49.238;6.698;2022-11-20T06:57:39;14.93;;;7.37;;
9898;SDS011;4988;49.238;6.698;2022-11-20T07:00:05;15.63;;;7.70;;
9898;SDS011;4988;49.238;6.698;2022-11-20T07:02:31;13.77;;;7.03;;
9898;SDS011;4988;49.238;6.698;2022-11-20T07:04:56;12.07;;;7.13;;
9898;SDS011;4988;49.238;6.698;2022-11-20T07:07:22;11.87;;;6.77;;
9898;SDS011;4988;49.238;6.698;2022-11-20T07:09:47;15.90;;;7.00;;
9898;SDS011;4988;49.238;6.698;2022-11-20T07:12:12;11.73;;;7.37;;
9898;SDS011;4988;49.238;6.698;2022-11-20T07:14:38;13.40;;;7.20;;
9898;SDS011;4988;49.238;6.698;2022-11-20T07:17:03;12.43;;;7.20;;
9898;SDS011;4988;49.238;6.698;2022-11-20T07:19:29;14.43;;;6.87;;
9898;SDS011;4988;49.238;6.698;2022-11-20T07:21:54;14.70;;;6.87;;
9898;SDS011;4988;49.238;6.698;2022-11-20T07:24:20;12.13;;;6.97;;
9898;SDS011;4988;49.238;6.698;2022-11-20T07:26:46;11.57;;;6.10;;
9898;SDS011;4988;49.238;6.698;2022-11-20T07:29:14;10.80;;;5.90;;
9898;SDS011;4988;49.238;6.698;2022-11-20T07:31:41;9.83;;;6.03;;
9898;SDS011;4988;49.238;6.698;2022-11-20T07:34:07;13.50;;;6.00;;
9898;SDS011;4988;49.238;6.698;2022-11-20T07:36:33;12.40;;;6.50;;
9898;SDS011;4988;49.238;6.698;2022-11-20T07:38:59;13.40;;;6.70;;
9898;SDS011;4988;49.238;6.698;2022-11-20T07:41:24;11.77;;;5.80;;
9898;SDS011;4988;49.238;6.698;2022-11-20T07:43:51;11.17;;;5.73;;
9898;SDS011;4988;49.238;6.698;2022-11-20T07:46:16;13.00;;;6.57;;
9898;SDS011;4988;49.238;6.698;2022-11-20T07:48:42;14.23;;;6.73;;
9898;SDS011;4988;49.238;6.698;2022-11-20T07:51:07;15.17;;;7.20;;
9898;SDS011;4988;49.238;6.698;2022-11-20T07:53:33;13.57;;;6.87;;
9898;SDS011;4988;49.238;6.698;2022-11-20T07:55:59;13.33;;;7.03;;
9898;SDS011;4988;49.238;6.698;2022-11-20T07:58:26;11.70;;;6.83;;
9898;SDS011;4988;49.238;6.698;2022-11-20T08:00:53;12.30;;;7.53;;
9898;SDS011;4988;49.238;6.698;2022-11-20T08:03:19;13.50;;;7.80;;
9898;SDS011;4988;49.238;6.698;2022-11-20T08:05:44;15.10;;;8.23;;
9898;SDS011;4988;49.238;6.698;2022-11-20T08:08:10;18.60;;;8.40;;
9898;SDS011;4988;49.238;6.698;2022-11-20T08:10:36;22.63;;;8.80;;
9898;SDS011;4988;49.238;6.698;2022-11-20T08:13:02;15.67;;;7.67;;
9898;SDS011;4988;49.238;6.698;2022-11-20T08:15:49;20.43;;;8.80;;
9898;SDS011;4988;49.238;6.698;2022-11-20T08:18:15;17.73;;;8.50;;
9898;SDS011;4988;49.238;6.698;2022-11-20T08:20:42;18.43;;;9.23;;
9898;SDS011;4988;49.238;6.698;2022-11-20T08:23:08;21.50;;;9.37;;
9898;SDS011;4988;49.238;6.698;2022-11-20T08:25:35;15.90;;;7.80;;
9898;SDS011;4988;49.238;6.698;2022-11-20T08:28:03;16.37;;;7.57;;
9898;SDS011;4988;49.238;6.698;2022-11-20T08:30:31;16.37;;;7.43;;
9898;SDS011;4988;49.238;6.698;2022-11-20T08:33:00;16.23;;;7.33;;
9898;SDS011;4988;49.238;6.698;2022-11-20T08:35:37;18.80;;;7.43;;
9898;SDS011;4988;49.238;6.698;2022-11-20T08:38:06;19.93;;;8.17;;
9898;SDS011;4988;49.238;6.698;2022-11-20T08:40:32;18.73;;;7.07;;
9898;SDS011;4988;49.238;6.698;2022-11-20T08:42:58;15.20;;;6.80;;
9898;SDS011;4988;49.238;6.698;2022-11-20T08:45:23;17.50;;;7.13;;
9898;SDS011;4988;49.238;6.698;2022-11-20T08:47:49;15.20;;;7.33;;
9898;SDS011;4988;49.238;6.698;2022-11-20T08:50:15;16.30;;;7.13;;
9898;SDS011;4988;49.238;6.698;2022-11-20T08:52:41;14.03;;;7.47;;
9898;SDS011;4988;49.238;6.698;2022-11-20T08:55:07;13.93;;;7.53;;
9898;SDS011;4988;49.238;6.698;2022-11-20T08:57:36;15.10;;;7.60;;
9898;SDS011;4988;49.238;6.698;2022-11-20T09:00:03;14.87;;;7.67;;
9898;SDS011;4988;49.238;6.698;2022-11-20T09:02:29;15.63;;;7.57;;
9898;SDS011;4988;49.238;6.698;2022-11-20T09:04:55;11.87;;;7.33;;
9898;SDS011;4988;49.238;6.698;2022-11-20T09:07:20;20.67;;;7.93;;
9898;SDS011;4988;49.238;6.698;2022-11-20T09:09:45;11.70;;;6.63;;
9898;SDS011;4988;49.238;6.698;2022-11-20T09:12:11;16.20;;;7.17;;
9898;SDS011;4988;49.238;6.698;2022-11-20T09:14:36;14.03;;;7.77;;
9898;SDS011;4988;49.238;6.698;2022-11-20T09:17:01;16.73;;;7.60;;
9898;SDS011;4988;49.238;6.698;2022-11-20T09:19:27;19.43;;;8.17;;
9898;SDS011;4988;49.238;6.698;2022-11-20T09:21:52;16.07;;;7.50;;
9898;SDS011;4988;49.238;6.698;2022-11-20T09:24:18;18.63;;;8.17;;
9898;SDS011;4988;49.238;6.698;2022-11-20T09:26:45;16.00;;;7.60;;
9898;SDS011;4988;49.238;6.698;2022-11-20T09:29:10;19.83;;;8.10;;
9898;SDS011;4988;49.238;6.698;2022-11-20T09:31:36;19.47;;;8.40;;
9898;SDS011;4988;49.238;6.698;2022-11-20T09:34:01;14.93;;;8.60;;
9898;SDS011;4988;49.238;6.698;2022-11-20T09:36:26;19.87;;;8.23;;
9898;SDS011;4988;49.238;6.698;2022-11-20T09:38:52;17.83;;;8.10;;
9898;SDS011;4988;49.238;6.698;2022-11-20T09:41:30;16.67;;;8.23;;
9898;SDS011;4988;49.238;6.698;2022-11-20T09:47:26;12.23;;;7.20;;
9898;SDS011;4988;49.238;6.698;2022-11-20T09:55:45;16.30;;;7.33;;
9898;SDS011;4988;49.238;6.698;2022-11-20T10:01:14;15.03;;;6.67;;
9898;SDS011;4988;49.238;6.698;2022-11-20T10:06:47;16.03;;;7.70;;
9898;SDS011;4988;49.238;6.698;2022-11-20T10:09:35;14.43;;;7.00;;
9898;SDS011;4988;49.238;6.698;2022-11-20T10:31:37;9.53;;;5.20;;
9898;SDS011;4988;49.238;6.698;2022-11-20T10:34:27;9.47;;;4.70;;
9898;SDS011;4988;49.238;6.698;2022-11-20T10:36:58;12.77;;;5.13;;
9898;SDS011;4988;49.238;6.698;2022-11-20T10:42:00;9.67;;;4.97;;
9898;SDS011;4988;49.238;6.698;2022-11-20T10:44:26;8.63;;;4.47;;
9898;SDS011;4988;49.238;6.698;2022-11-20T10:47:13;10.83;;;4.63;;
9898;SDS011;4988;49.238;6.698;2022-11-20T10:49:43;13.23;;;4.93;;
9898;SDS011;4988;49.238;6.698;2022-11-20T10:55:24;10.87;;;4.30;;
9898;SDS011;4988;49.238;6.698;2022-11-20T10:58:14;9.37;;;4.37;;
9898;SDS011;4988;49.238;6.698;2022-11-20T11:00:47;13.57;;;4.40;;
9898;SDS011;4988;49.238;6.698;2022-11-20T11:03:20;10.97;;;5.03;;
9898;SDS011;4988;49.238;6.698;2022-11-20T11:05:54;9.93;;;3.10;;
9898;SDS011;4988;49.238;6.698;2022-11-20T11:08:28;6.23;;;3.47;;
9898;SDS011;4988;49.238;6.698;2022-11-20T11:11:00;9.97;;;3.40;;
9898;SDS011;4988;49.238;6.698;2022-11-20T11:13:34;8.83;;;3.17;;
9898;SDS011;4988;49.238;6.698;2022-11-20T11:15:59;7.37;;;2.87;;
9898;SDS011;4988;49.238;6.698;2022-11-20T11:18:31;5.80;;;3.00;;
9898;SDS011;4988;49.238;6.698;2022-11-20T11:21:03;5.37;;;2.47;;
9898;SDS011;4988;49.238;6.698;2022-11-20T11:26:04;7.77;;;3.07;;
9898;SDS011;4988;49.238;6.698;2022-11-20T11:28:32;8.60;;;3.33;;
9898;SDS011;4988;49.238;6.698;2022-11-20T11:30:58;5.17;;;3.53;;
9898;SDS011;4988;49.238;6.698;2022-11-20T11:35:54;6.53;;;3.33;;
9898;SDS011;4988;49.238;6.698;2022-11-20T11:38:38;8.97;;;3.03;;
9898;SDS011;4988;49.238;6.698;2022-11-20T11:41:06;5.00;;;2.83;;
9898;SDS011;4988;49.238;6.698;2022-11-20T11:43:35;5.63;;;2.60;;
9898;SDS011;4988;49.238;6.698;2022-11-20T11:48:55;4.23;;;2.73;;
9898;SDS011;4988;49.238;6.698;2022-11-20T11:51:22;5.40;;;2.80;;
9898;SDS011;4988;49.238;6.698;2022-11-20T11:53:47;9.77;;;3.03;;
9898;SDS011;4988;49.238;6.698;2022-11-20T11:56:12;6.20;;;2.70;;
9898;SDS011;4988;49.238;6.698;2022-11-20T11:58:46;6.13;;;3.10;;
9898;SDS011;4988;49.238;6.698;2022-11-20T12:01:19;6.27;;;3.73;;
9898;SDS011;4988;49.238;6.698;2022-11-20T12:04:10;8.47;;;3.30;;
9898;SDS011;4988;49.238;6.698;2022-11-20T12:06:45;11.20;;;2.67;;
9898;SDS011;4988;49.238;6.698;2022-11-20T12:09:16;4.70;;;2.70;;
9898;SDS011;4988;49.238;6.698;2022-11-20T12:11:47;8.40;;;3.60;;
9898;SDS011;4988;49.238;6.698;2022-11-20T12:14:32;5.90;;;3.10;;
9898;SDS011;4988;49.238;6.698;2022-11-20T12:17:01;7.80;;;2.63;;
9898;SDS011;4988;49.238;6.698;2022-11-20T12:19:28;5.60;;;3.03;;
9898;SDS011;4988;49.238;6.698;2022-11-20T12:45:54;6.27;;;2.33;;
9898;SDS011;4988;49.238;6.698;2022-11-20T12:53:33;2.93;;;2.20;;
9898;SDS011;4988;49.238;6.698;2022-11-20T13:01:45;4.63;;;2.10;;
9898;SDS011;4988;49.238;6.698;2022-11-20T13:04:23;3.67;;;2.10;;
9898;SDS011;4988;49.238;6.698;2022-11-20T13:07:11;4.93;;;2.50;;
9898;SDS011;4988;49.238;6.698;2022-11-20T13:09:40;2.37;;;1.87;;
9898;SDS011;4988;49.238;6.698;2022-11-20T13:12:29;7.10;;;2.50;;
9898;SDS011;4988;49.238;6.698;2022-11-20T13:15:07;5.17;;;2.47;;
9898;SDS011;4988;49.238;6.698;2022-11-20T13:17:51;5.43;;;2.83;;
9898;SDS011;4988;49.238;6.698;2022-11-20T13:20:22;5.47;;;2.60;;
9898;SDS011;4988;49.238;6.698;2022-11-20T13:22:51;3.77;;;2.57;;
9898;SDS011;4988;49.238;6.698;2022-11-20T13:25:23;5.07;;;3.00;;
9898;SDS011;4988;49.238;6.698;2022-11-20T13:27:49;6.03;;;3.07;;
9898;SDS011;4988;49.238;6.698;2022-11-20T13:30:16;6.73;;;3.00;;
9898;SDS011;4988;49.238;6.698;2022-11-20T13:35:37;8.70;;;3.17;;
9898;SDS011;4988;49.238;6.698;2022-11-20T13:40:34;11.87;;;2.77;;
9898;SDS011;4988;49.238;6.698;2022-11-20T13:45:33;6.90;;;3.03;;
9898;SDS011;4988;49.238;6.698;2022-11-20T13:48:14;5.90;;;2.70;;
9898;SDS011;4988;49.238;6.698;2022-11-20T13:50:53;5.93;;;3.10;;
9898;SDS011;4988;49.238;6.698;2022-11-20T14:02:14;6.20;;;3.10;;
9898;SDS011;4988;49.238;6.698;2022-11-20T14:04:45;6.53;;;2.93;;
9898;SDS011;4988;49.238;6.698;2022-11-20T14:07:13;8.50;;;3.60;;
9898;SDS011;4988;49.238;6.698;2022-11-20T14:09:48;10.30;;;4.67;;
9898;SDS011;4988;49.238;6.698;2022-11-20T14:12:31;5.83;;;3.27;;
9898;SDS011;4988;49.238;6.698;2022-11-20T14:14:58;9.40;;;4.27;;
9898;SDS011;4988;49.238;6.698;2022-11-20T14:17:30;6.33;;;2.97;;
9898;SDS011;4988;49.238;6.698;2022-11-20T14:19:58;8.30;;;3.60;;
9898;SDS011;4988;49.238;6.698;2022-11-20T14:22:27;5.43;;;3.10;;
9898;SDS011;4988;49.238;6.698;2022-11-20T14:25:06;7.57;;;3.60;;
9898;SDS011;4988;49.238;6.698;2022-11-20T14:27:47;4.40;;;2.80;;
9898;SDS011;4988;49.238;6.698;2022-11-20T14:30:20;10.50;;;3.13;;
9898;SDS011;4988;49.238;6.698;2022-11-20T14:32:48;8.57;;;3.50;;
9898;SDS011;4988;49.238;6.698;2022-11-20T14:35:20;8.27;;;3.97;;
9898;SDS011;4988;49.238;6.698;2022-11-20T14:37:49;7.97;;;3.20;;
9898;SDS011;4988;49.238;6.698;2022-11-20T14:40:47;6.13;;;3.10;;
9898;SDS011;4988;49.238;6.698;2022-11-20T14:43:17;7.07;;;2.70;;
9898;SDS011;4988;49.238;6.698;2022-11-20T14:45:44;5.77;;;2.90;;
9898;SDS011;4988;49.238;6.698;2022-11-20T14:48:16;6.03;;;3.57;;
9898;SDS011;4988;49.238;6.698;2022-11-20T14:50:41;9.47;;;3.70;;
9898;SDS011;4988;49.238;6.698;2022-11-20T14:53:07;8.27;;;3.07;;
9898;SDS011;4988;49.238;6.698;2022-11-20T14:55:33;7.07;;;3.23;;
9898;SDS011;4988;49.238;6.698;2022-11-20T14:58:18;9.33;;;3.10;;
9898;SDS011;4988;49.238;6.698;2022-11-20T15:01:00;6.43;;;3.20;;
9898;SDS011;4988;49.238;6.698;2022-11-20T15:03:39;6.67;;;2.67;;
9898;SDS011;4988;49.238;6.698;2022-11-20T15:06:07;5.23;;;2.37;;
9898;SDS011;4988;49.238;6.698;2022-11-20T15:08:35;8.93;;;2.60;;
9898;SDS011;4988;49.238;6.698;2022-11-20T15:11:01;7.97;;;3.27;;
9898;SDS011;4988;49.238;6.698;2022-11-20T15:13:37;7.73;;;2.70;;
9898;SDS011;4988;49.238;6.698;2022-11-20T15:16:08;9.07;;;2.80;;
9898;SDS011;4988;49.238;6.698;2022-11-20T15:18:42;5.83;;;2.80;;
9898;SDS011;4988;49.238;6.698;2022-11-20T15:21:12;5.20;;;2.73;;
9898;SDS011;4988;49.238;6.698;2022-11-20T15:23:39;9.53;;;3.53;;
9898;SDS011;4988;49.238;6.698;2022-11-20T15:26:05;10.03;;;3.80;;
9898;SDS011;4988;49.238;6.698;2022-11-20T15:28:35;5.17;;;2.80;;
9898;SDS011;4988;49.238;6.698;2022-11-20T15:31:04;5.43;;;3.10;;
9898;SDS011;4988;49.238;6.698;2022-11-20T15:33:30;4.77;;;2.93;;
9898;SDS011;4988;49.238;6.698;2022-11-20T15:35:57;4.47;;;2.90;;
9898;SDS011;4988;49.238;6.698;2022-11-20T15:38:22;5.80;;;3.07;;
9898;SDS011;4988;49.238;6.698;2022-11-20T15:40:48;5.23;;;2.60;;
9898;SDS011;4988;49.238;6.698;2022-11-20T15:43:13;6.00;;;2.67;;
9898;SDS011;4988;49.238;6.698;2022-11-20T15:48:29;16.67;;;9.27;;
9898;SDS011;4988;49.238;6.698;2022-11-20T15:53:44;14.37;;;4.47;;
9898;SDS011;4988;49.238;6.698;2022-11-20T15:56:13;5.20;;;3.80;;
9898;SDS011;4988;49.238;6.698;2022-11-20T15:58:39;7.47;;;3.37;;
9898;SDS011;4988;49.238;6.698;2022-11-20T16:01:05;5.07;;;3.57;;
9898;SDS011;4988;49.238;6.698;2022-11-20T16:03:34;6.27;;;4.20;;
9898;SDS011;4988;49.238;6.698;2022-11-20T16:05:59;6.63;;;4.30;;
9898;SDS011;4988;49.238;6.698;2022-11-20T16:08:25;7.03;;;3.43;;
9898;SDS011;4988;49.238;6.698;2022-11-20T16:10:50;6.33;;;3.90;;
9898;SDS011;4988;49.238;6.698;2022-11-20T16:13:16;5.40;;;2.90;;
9898;SDS011;4988;49.238;6.698;2022-11-20T16:16:02;7.37;;;3.27;;
9898;SDS011;4988;49.238;6.698;2022-11-20T16:18:30;5.43;;;3.70;;
9898;SDS011;4988;49.238;6.698;2022-11-20T16:20:56;6.97;;;3.40;;
9898;SDS011;4988;49.238;6.698;2022-11-20T16:23:21;6.00;;;3.27;;
9898;SDS011;4988;49.238;6.698;2022-11-20T16:25:47;4.97;;;2.47;;
9898;SDS011;4988;49.238;6.698;2022-11-20T16:28:13;4.97;;;2.77;;
9898;SDS011;4988;49.238;6.698;2022-11-20T16:30:39;3.03;;;2.67;;
9898;SDS011;4988;49.238;6.698;2022-11-20T16:33:08;5.70;;;2.60;;
9898;SDS011;4988;49.238;6.698;2022-11-20T16:35:35;4.83;;;2.60;;
9898;SDS011;4988;49.238;6.698;2022-11-20T16:38:00;7.20;;;3.57;;
9898;SDS011;4988;49.238;6.698;2022-11-20T16:40:26;5.47;;;2.67;;
9898;SDS011;4988;49.238;6.698;2022-11-20T16:42:51;5.63;;;2.70;;
9898;SDS011;4988;49.238;6.698;2022-11-20T16:45:17;8.20;;;3.27;;
9898;SDS011;4988;49.238;6.698;2022-11-20T16:47:42;6.23;;;2.73;;
9898;SDS011;4988;49.238;6.698;2022-11-20T16:50:08;4.83;;;2.23;;
9898;SDS011;4988;49.238;6.698;2022-11-20T16:52:34;7.17;;;2.80;;
9898;SDS011;4988;49.238;6.698;2022-11-20T16:54:59;3.47;;;2.47;;
9898;SDS011;4988;49.238;6.698;2022-11-20T16:57:28;3.23;;;2.53;;
9898;SDS011;4988;49.238;6.698;2022-11-20T16:59:55;4.27;;;2.27;;
9898;SDS011;4988;49.238;6.698;2022-11-20T17:02:20;2.83;;;2.53;;
9898;SDS011;4988;49.238;6.698;2022-11-20T17:04:46;6.03;;;2.73;;
9898;SDS011;4988;49.238;6.698;2022-11-20T17:07:11;4.03;;;2.43;;